sensor_id;sensor_type;location;lat;lon;timestamp;noise_LAeq;noise_LA_min;noise_LA_max;noise_LA01;noise_LA95
69668;Laerm;66534;52.370;4.832;2023-08-06T00:00:20;53.06;48.74;67.36;;
69668;Laerm;66534;52.370;4.832;2023-08-06T00:00:50;57.48;49.19;80.52;;
69668;Laerm;66534;52.370;4.832;2023-08-06T00:01:20;54.47;50.13;66.21;;
69668;Laerm;66534;52.370;4.832;2023-08-06T00:01:53;58.93;48.62;83.96;;
69668;Laerm;66534;52.370;4.832;2023-08-06T00:02:23;54.39;46.78;79.37;;
69668;Laerm;66534;52.370;4.832;2023-08-06T00:02:54;50.47;46.40;62.79;;
69668;Laerm;66534;52.370;4.832;2023-08-06T00:03:24;50.87;45.49;74.91;;
69668;Laerm;66534;52.370;4.832;2023-08-06T00:03:55;53.83;45.97;80.63;;
69668;Laerm;66534;52.370;4.832;2023-08-06T00:04:25;48.71;44.70;66.18;;
69668;Laerm;66534;52.370;4.832;2023-08-06T00:04:56;48.28;44.00;60.75;;
69668;Laerm;66534;52.370;4.832;2023-08-06T00:05:26;49.05;43.94;63.99;;
69668;Laerm;66534;52.370;4.832;2023-08-06T00:05:56;52.62;44.16;79.40;;
69668;Laerm;66534;52.370;4.832;2023-08-06T00:06:27;46.98;42.63;63.55;;
69668;Laerm;66534;52.370;4.832;2023-08-06T00:06:57;45.90;41.59;61.28;;
69668;Laerm;66534;52.370;4.832;2023-08-06T00:07:28;45.05;41.42;59.81;;
69668;Laerm;66534;52.370;4.832;2023-08-06T00:07:58;47.33;42.02;58.29;;
69668;Laerm;66534;52.370;4.832;2023-08-06T00:08:28;45.01;41.01;60.37;;
69668;Laerm;66534;52.370;4.832;2023-08-06T00:08:59;50.56;41.20;77.81;;
69668;Laerm;66534;52.370;4.832;2023-08-06T00:09:29;46.52;41.66;59.76;;
69668;Laerm;66534;52.370;4.832;2023-08-06T00:10:00;44.97;40.44;60.27;;
69668;Laerm;66534;52.370;4.832;2023-08-06T00:10:30;43.10;40.08;56.01;;
69668;Laerm;66534;52.370;4.832;2023-08-06T00:11:00;43.54;40.22;62.52;;
69668;Laerm;66534;52.370;4.832;2023-08-06T00:11:31;43.48;39.68;59.50;;
69668;Laerm;66534;52.370;4.832;2023-08-06T00:12:01;44.96;40.06;59.26;;
69668;Laerm;66534;52.370;4.832;2023-08-06T00:12:32;45.35;39.27;66.97;;
69668;Laerm;66534;52.370;4.832;2023-08-06T00:13:02;42.13;39.25;54.08;;
69668;Laerm;66534;52.370;4.832;2023-08-06T00:13:33;49.33;39.39;64.81;;
69668;Laerm;66534;52.370;4.832;2023-08-06T00:14:03;51.19;42.01;65.69;;
69668;Laerm;66534;52.370;4.832;2023-08-06T00:14:34;52.11;43.12;73.26;;
69668;Laerm;66534;52.370;4.832;2023-08-06T00:15:05;59.56;41.70;78.18;;
69668;Laerm;66534;52.370;4.832;2023-08-06T00:15:35;59.45;52.90;70.69;;
69668;Laerm;66534;52.370;4.832;2023-08-06T00:16:12;48.24;42.77;58.63;;
69668;Laerm;66534;52.370;4.832;2023-08-06T00:16:44;47.82;42.88;62.88;;
69668;Laerm;66534;52.370;4.832;2023-08-06T00:17:15;48.87;45.03;61.92;;
69668;Laerm;66534;52.370;4.832;2023-08-06T00:17:45;48.45;44.36;67.11;;
69668;Laerm;66534;52.370;4.832;2023-08-06T00:18:16;50.84;43.66;77.21;;
69668;Laerm;66534;52.370;4.832;2023-08-06T00:18:46;51.98;46.56;72.27;;
69668;Laerm;66534;52.370;4.832;2023-08-06T00:19:16;49.88;45.73;65.46;;
69668;Laerm;66534;52.370;4.832;2023-08-06T00:19:47;50.42;44.51;68.18;;
69668;Laerm;66534;52.370;4.832;2023-08-06T00:20:17;48.84;43.41;68.97;;
69668;Laerm;66534;52.370;4.832;2023-08-06T00:20:48;52.00;42.38;80.13;;
69668;Laerm;66534;52.370;4.832;2023-08-06T00:21:18;55.76;42.33;83.92;;
69668;Laerm;66534;52.370;4.832;2023-08-06T00:21:48;47.34;43.43;58.52;;
69668;Laerm;66534;52.370;4.832;2023-08-06T00:22:19;48.99;43.85;54.70;;
69668;Laerm;66534;52.370;4.832;2023-08-06T00:22:49;49.03;43.13;66.09;;
69668;Laerm;66534;52.370;4.832;2023-08-06T00:23:20;51.78;41.68;79.85;;
69668;Laerm;66534;52.370;4.832;2023-08-06T00:23:52;46.46;40.69;70.16;;
69668;Laerm;66534;52.370;4.832;2023-08-06T00:24:22;45.04;40.50;55.21;;
69668;Laerm;66534;52.370;4.832;2023-08-06T00:24:53;45.89;42.40;60.49;;
69668;Laerm;66534;52.370;4.832;2023-08-06T00:25:23;45.40;41.67;63.02;;
69668;Laerm;66534;52.370;4.832;2023-08-06T00:25:54;44.76;41.63;55.73;;
69668;Laerm;66534;52.370;4.832;2023-08-06T00:26:24;46.98;42.51;58.95;;
69668;Laerm;66534;52.370;4.832;2023-08-06T00:26:54;45.25;40.97;57.20;;
69668;Laerm;66534;52.370;4.832;2023-08-06T00:27:25;46.19;40.29;71.83;;
69668;Laerm;66534;52.370;4.832;2023-08-06T00:27:56;55.20;40.52;81.41;;
69668;Laerm;66534;52.370;4.832;2023-08-06T00:28:26;47.31;41.75;58.30;;
69668;Laerm;66534;52.370;4.832;2023-08-06T00:28:57;43.28;39.95;55.01;;
69668;Laerm;66534;52.370;4.832;2023-08-06T00:29:28;42.76;39.72;53.42;;
69668;Laerm;66534;52.370;4.832;2023-08-06T00:29:58;53.98;40.52;82.66;;
69668;Laerm;66534;52.370;4.832;2023-08-06T00:30:29;45.63;40.64;54.23;;
69668;Laerm;66534;52.370;4.832;2023-08-06T00:30:59;56.09;40.55;85.01;;
69668;Laerm;66534;52.370;4.832;2023-08-06T00:31:30;48.04;42.20;69.63;;
69668;Laerm;66534;52.370;4.832;2023-08-06T00:32:00;45.05;41.30;58.04;;
69668;Laerm;66534;52.370;4.832;2023-08-06T00:32:30;54.95;41.10;82.44;;
69668;Laerm;66534;52.370;4.832;2023-08-06T00:33:01;53.94;41.45;82.49;;
69668;Laerm;66534;52.370;4.832;2023-08-06T00:33:31;46.18;41.12;61.77;;
69668;Laerm;66534;52.370;4.832;2023-08-06T00:34:02;45.88;41.29;64.17;;
69668;Laerm;66534;52.370;4.832;2023-08-06T00:34:32;53.51;41.98;81.96;;
69668;Laerm;66534;52.370;4.832;2023-08-06T00:35:03;47.14;42.33;63.83;;
69668;Laerm;66534;52.370;4.832;2023-08-06T00:35:34;46.44;42.47;63.34;;
69668;Laerm;66534;52.370;4.832;2023-08-06T00:36:04;48.31;42.63;60.58;;
69668;Laerm;66534;52.370;4.832;2023-08-06T00:36:35;47.25;43.41;61.87;;
69668;Laerm;66534;52.370;4.832;2023-08-06T00:37:05;46.27;42.25;61.74;;
69668;Laerm;66534;52.370;4.832;2023-08-06T00:37:36;52.68;43.76;80.02;;
69668;Laerm;66534;52.370;4.832;2023-08-06T00:38:06;47.49;43.91;63.49;;
69668;Laerm;66534;52.370;4.832;2023-08-06T00:38:36;49.75;43.06;76.08;;
69668;Laerm;66534;52.370;4.832;2023-08-06T00:39:07;49.34;44.19;65.30;;
69668;Laerm;66534;52.370;4.832;2023-08-06T00:39:37;48.86;45.09;61.54;;
69668;Laerm;66534;52.370;4.832;2023-08-06T00:40:08;57.06;45.69;83.09;;
69668;Laerm;66534;52.370;4.832;2023-08-06T00:40:38;52.71;46.67;73.63;;
69668;Laerm;66534;52.370;4.832;2023-08-06T00:41:09;52.10;47.51;65.09;;
69668;Laerm;66534;52.370;4.832;2023-08-06T00:41:39;51.86;47.12;73.06;;
69668;Laerm;66534;52.370;4.832;2023-08-06T00:42:10;51.79;48.30;64.31;;
69668;Laerm;66534;52.370;4.832;2023-08-06T00:42:41;54.37;47.56;79.71;;
69668;Laerm;66534;52.370;4.832;2023-08-06T00:43:11;55.24;48.28;81.63;;
69668;Laerm;66534;52.370;4.832;2023-08-06T00:43:42;56.70;48.15;82.16;;
69668;Laerm;66534;52.370;4.832;2023-08-06T00:44:12;56.01;49.65;81.20;;
69668;Laerm;66534;52.370;4.832;2023-08-06T00:44:43;54.01;49.61;71.92;;
69668;Laerm;66534;52.370;4.832;2023-08-06T00:45:13;59.42;50.60;83.58;;
69668;Laerm;66534;52.370;4.832;2023-08-06T00:45:44;58.37;52.64;81.12;;
69668;Laerm;66534;52.370;4.832;2023-08-06T00:46:14;61.36;54.44;83.97;;
69668;Laerm;66534;52.370;4.832;2023-08-06T00:46:45;60.53;53.27;80.42;;
69668;Laerm;66534;52.370;4.832;2023-08-06T00:47:15;58.14;50.42;80.84;;
69668;Laerm;66534;52.370;4.832;2023-08-06T00:47:47;55.27;48.62;79.28;;
69668;Laerm;66534;52.370;4.832;2023-08-06T00:48:18;54.64;48.94;76.66;;
69668;Laerm;66534;52.370;4.832;2023-08-06T00:48:50;53.25;47.68;77.46;;
69668;Laerm;66534;52.370;4.832;2023-08-06T00:49:21;52.40;47.24;74.68;;
69668;Laerm;66534;52.370;4.832;2023-08-06T00:49:51;55.42;45.91;83.38;;
69668;Laerm;66534;52.370;4.832;2023-08-06T00:50:22;55.08;44.28;83.14;;
69668;Laerm;66534;52.370;4.832;2023-08-06T00:50:53;48.58;44.52;64.92;;
69668;Laerm;66534;52.370;4.832;2023-08-06T00:51:24;48.75;44.68;59.65;;
69668;Laerm;66534;52.370;4.832;2023-08-06T00:51:56;48.45;44.03;59.66;;
69668;Laerm;66534;52.370;4.832;2023-08-06T00:52:27;54.55;42.62;82.74;;
69668;Laerm;66534;52.370;4.832;2023-08-06T00:52:59;46.35;42.58;59.05;;
69668;Laerm;66534;52.370;4.832;2023-08-06T00:53:29;49.13;42.03;74.88;;
69668;Laerm;66534;52.370;4.832;2023-08-06T00:54:01;47.34;42.08;65.95;;
69668;Laerm;66534;52.370;4.832;2023-08-06T00:54:32;46.85;41.44;59.65;;
69668;Laerm;66534;52.370;4.832;2023-08-06T00:55:04;46.09;41.50;59.89;;
69668;Laerm;66534;52.370;4.832;2023-08-06T00:55:34;48.85;42.07;74.20;;
69668;Laerm;66534;52.370;4.832;2023-08-06T00:56:06;53.59;43.50;81.56;;
69668;Laerm;66534;52.370;4.832;2023-08-06T00:56:37;48.09;43.71;66.39;;
69668;Laerm;66534;52.370;4.832;2023-08-06T00:57:09;50.23;44.39;76.15;;
69668;Laerm;66534;52.370;4.832;2023-08-06T00:57:39;46.18;42.34;57.33;;
69668;Laerm;66534;52.370;4.832;2023-08-06T00:58:10;56.52;42.30;82.53;;
69668;Laerm;66534;52.370;4.832;2023-08-06T00:58:41;49.70;44.61;73.77;;
69668;Laerm;66534;52.370;4.832;2023-08-06T00:59:12;53.11;45.05;77.85;;
69668;Laerm;66534;52.370;4.832;2023-08-06T00:59:43;48.44;44.57;62.25;;
69668;Laerm;66534;52.370;4.832;2023-08-06T01:00:14;53.16;43.37;80.63;;
69668;Laerm;66534;52.370;4.832;2023-08-06T01:00:44;51.94;42.08;79.15;;
69668;Laerm;66534;52.370;4.832;2023-08-06T01:01:14;45.36;41.51;59.84;;
69668;Laerm;66534;52.370;4.832;2023-08-06T01:01:45;44.56;41.38;57.91;;
69668;Laerm;66534;52.370;4.832;2023-08-06T01:02:16;45.74;41.79;60.76;;
69668;Laerm;66534;52.370;4.832;2023-08-06T01:02:48;44.04;40.48;56.66;;
69668;Laerm;66534;52.370;4.832;2023-08-06T01:03:18;45.15;40.84;58.97;;
69668;Laerm;66534;52.370;4.832;2023-08-06T01:03:49;48.34;43.73;61.83;;
69668;Laerm;66534;52.370;4.832;2023-08-06T01:04:20;50.70;42.18;77.47;;
69668;Laerm;66534;52.370;4.832;2023-08-06T01:04:50;50.22;42.93;76.43;;
69668;Laerm;66534;52.370;4.832;2023-08-06T01:05:21;47.57;42.93;59.86;;
69668;Laerm;66534;52.370;4.832;2023-08-06T01:05:53;49.39;42.05;66.25;;
69668;Laerm;66534;52.370;4.832;2023-08-06T01:06:39;46.12;40.10;55.15;;
69668;Laerm;66534;52.370;4.832;2023-08-06T01:08:49;46.64;41.87;56.34;;
69668;Laerm;66534;52.370;4.832;2023-08-06T01:09:28;44.75;41.44;54.02;;
69668;Laerm;66534;52.370;4.832;2023-08-06T01:12:37;43.89;38.46;57.14;;
69668;Laerm;66534;52.370;4.832;2023-08-06T01:13:33;45.67;38.74;58.49;;
69668;Laerm;66534;52.370;4.832;2023-08-06T01:14:45;45.32;39.71;63.54;;
69668;Laerm;66534;52.370;4.832;2023-08-06T01:15:18;47.23;40.59;60.69;;
69668;Laerm;66534;52.370;4.832;2023-08-06T01:15:55;46.23;40.30;61.23;;
69668;Laerm;66534;52.370;4.832;2023-08-06T01:16:30;46.63;40.30;53.74;;
69668;Laerm;66534;52.370;4.832;2023-08-06T01:17:01;46.11;40.77;58.39;;
69668;Laerm;66534;52.370;4.832;2023-08-06T01:17:33;42.76;39.06;51.65;;
69668;Laerm;66534;52.370;4.832;2023-08-06T01:18:04;42.17;37.37;57.06;;
69668;Laerm;66534;52.370;4.832;2023-08-06T01:18:35;47.05;39.93;52.62;;
69668;Laerm;66534;52.370;4.832;2023-08-06T01:19:20;44.58;38.57;62.10;;
69668;Laerm;66534;52.370;4.832;2023-08-06T01:19:50;42.01;38.46;58.71;;
69668;Laerm;66534;52.370;4.832;2023-08-06T01:20:21;43.06;38.82;59.22;;
69668;Laerm;66534;52.370;4.832;2023-08-06T01:20:51;45.95;40.38;55.06;;
69668;Laerm;66534;52.370;4.832;2023-08-06T01:21:22;42.76;40.18;55.38;;
69668;Laerm;66534;52.370;4.832;2023-08-06T01:21:52;46.49;40.94;57.13;;
69668;Laerm;66534;52.370;4.832;2023-08-06T01:22:22;47.87;41.88;53.59;;
69668;Laerm;66534;52.370;4.832;2023-08-06T01:22:53;52.47;41.92;79.51;;
69668;Laerm;66534;52.370;4.832;2023-08-06T01:23:24;45.36;41.64;61.68;;
69668;Laerm;66534;52.370;4.832;2023-08-06T01:23:55;56.17;41.89;82.63;;
69668;Laerm;66534;52.370;4.832;2023-08-06T01:24:25;46.59;42.72;62.45;;
69668;Laerm;66534;52.370;4.832;2023-08-06T01:24:56;55.95;45.05;81.85;;
69668;Laerm;66534;52.370;4.832;2023-08-06T01:25:56;48.44;42.48;72.52;;
69668;Laerm;66534;52.370;4.832;2023-08-06T01:26:33;50.89;41.57;78.38;;
69668;Laerm;66534;52.370;4.832;2023-08-06T01:27:16;46.45;41.16;62.70;;
69668;Laerm;66534;52.370;4.832;2023-08-06T01:27:49;55.47;40.44;82.89;;
69668;Laerm;66534;52.370;4.832;2023-08-06T01:28:32;43.36;40.34;61.96;;
69668;Laerm;66534;52.370;4.832;2023-08-06T01:29:11;47.28;40.85;60.32;;
69668;Laerm;66534;52.370;4.832;2023-08-06T01:29:48;47.98;43.28;68.93;;
69668;Laerm;66534;52.370;4.832;2023-08-06T01:30:29;46.41;41.01;62.33;;
69668;Laerm;66534;52.370;4.832;2023-08-06T01:31:02;52.08;42.88;62.57;;
69668;Laerm;66534;52.370;4.832;2023-08-06T01:31:38;52.69;42.30;80.57;;
69668;Laerm;66534;52.370;4.832;2023-08-06T01:32:11;46.87;43.06;58.56;;
69668;Laerm;66534;52.370;4.832;2023-08-06T01:32:44;53.82;42.51;80.76;;
69668;Laerm;66534;52.370;4.832;2023-08-06T01:33:19;45.73;40.78;57.57;;
69668;Laerm;66534;52.370;4.832;2023-08-06T01:33:53;43.50;40.56;57.57;;
69668;Laerm;66534;52.370;4.832;2023-08-06T01:34:25;43.98;40.78;56.83;;
69668;Laerm;66534;52.370;4.832;2023-08-06T01:34:59;46.66;40.33;69.06;;
69668;Laerm;66534;52.370;4.832;2023-08-06T01:35:30;48.53;43.16;60.96;;
69668;Laerm;66534;52.370;4.832;2023-08-06T01:36:03;48.83;42.50;70.77;;
69668;Laerm;66534;52.370;4.832;2023-08-06T01:36:35;47.87;41.88;68.47;;
69668;Laerm;66534;52.370;4.832;2023-08-06T01:37:06;44.88;41.50;53.88;;
69668;Laerm;66534;52.370;4.832;2023-08-06T01:37:38;45.79;41.86;63.55;;
69668;Laerm;66534;52.370;4.832;2023-08-06T01:38:09;49.22;42.61;71.81;;
69668;Laerm;66534;52.370;4.832;2023-08-06T01:38:39;50.54;43.85;62.51;;
69668;Laerm;66534;52.370;4.832;2023-08-06T01:39:12;49.29;43.51;71.03;;
69668;Laerm;66534;52.370;4.832;2023-08-06T01:39:42;52.99;43.54;78.64;;
69668;Laerm;66534;52.370;4.832;2023-08-06T01:40:13;53.52;45.05;78.76;;
69668;Laerm;66534;52.370;4.832;2023-08-06T01:40:44;50.22;47.09;61.26;;
69668;Laerm;66534;52.370;4.832;2023-08-06T01:41:14;54.42;44.62;82.23;;
69668;Laerm;66534;52.370;4.832;2023-08-06T01:41:45;49.10;44.39;60.44;;
69668;Laerm;66534;52.370;4.832;2023-08-06T01:42:15;49.13;42.76;71.87;;
69668;Laerm;66534;52.370;4.832;2023-08-06T01:42:46;51.73;42.94;79.52;;
69668;Laerm;66534;52.370;4.832;2023-08-06T01:43:16;47.04;43.01;61.77;;
69668;Laerm;66534;52.370;4.832;2023-08-06T01:43:47;54.75;43.00;82.15;;
69668;Laerm;66534;52.370;4.832;2023-08-06T01:44:17;49.69;44.42;72.19;;
69668;Laerm;66534;52.370;4.832;2023-08-06T01:44:48;51.49;41.29;79.00;;
69668;Laerm;66534;52.370;4.832;2023-08-06T01:45:18;45.34;40.99;60.80;;
69668;Laerm;66534;52.370;4.832;2023-08-06T01:45:49;48.06;41.21;66.45;;
69668;Laerm;66534;52.370;4.832;2023-08-06T01:46:19;54.61;40.53;83.42;;
69668;Laerm;66534;52.370;4.832;2023-08-06T01:46:49;46.14;41.46;59.54;;
69668;Laerm;66534;52.370;4.832;2023-08-06T01:47:20;49.43;41.91;58.10;;
69668;Laerm;66534;52.370;4.832;2023-08-06T01:47:50;47.39;41.19;58.52;;
69668;Laerm;66534;52.370;4.832;2023-08-06T01:48:21;45.69;40.30;68.47;;
69668;Laerm;66534;52.370;4.832;2023-08-06T01:48:51;47.05;39.94;53.74;;
69668;Laerm;66534;52.370;4.832;2023-08-06T01:49:21;45.18;40.95;60.25;;
69668;Laerm;66534;52.370;4.832;2023-08-06T01:49:52;46.04;41.72;62.51;;
69668;Laerm;66534;52.370;4.832;2023-08-06T01:50:22;48.16;42.82;58.11;;
69668;Laerm;66534;52.370;4.832;2023-08-06T01:50:53;56.92;42.27;83.37;;
69668;Laerm;66534;52.370;4.832;2023-08-06T01:51:23;53.24;42.13;80.70;;
69668;Laerm;66534;52.370;4.832;2023-08-06T01:51:53;51.46;44.74;77.49;;
69668;Laerm;66534;52.370;4.832;2023-08-06T01:52:24;52.30;45.54;79.10;;
69668;Laerm;66534;52.370;4.832;2023-08-06T01:52:54;52.06;46.60;77.23;;
69668;Laerm;66534;52.370;4.832;2023-08-06T01:53:25;56.29;45.60;81.25;;
69668;Laerm;66534;52.370;4.832;2023-08-06T01:53:55;54.39;46.02;81.52;;
69668;Laerm;66534;52.370;4.832;2023-08-06T01:54:25;55.01;48.35;73.52;;
69668;Laerm;66534;52.370;4.832;2023-08-06T01:54:56;58.52;52.50;82.24;;
69668;Laerm;66534;52.370;4.832;2023-08-06T01:55:26;56.71;51.46;77.56;;
69668;Laerm;66534;52.370;4.832;2023-08-06T01:55:57;57.18;50.45;82.15;;
69668;Laerm;66534;52.370;4.832;2023-08-06T01:56:28;57.12;50.37;81.76;;
69668;Laerm;66534;52.370;4.832;2023-08-06T01:56:58;54.63;50.27;77.75;;
69668;Laerm;66534;52.370;4.832;2023-08-06T01:57:28;53.92;47.55;78.37;;
69668;Laerm;66534;52.370;4.832;2023-08-06T01:57:59;56.52;45.68;83.95;;
69668;Laerm;66534;52.370;4.832;2023-08-06T01:58:29;51.40;44.65;76.90;;
69668;Laerm;66534;52.370;4.832;2023-08-06T01:58:59;48.45;44.36;59.63;;
69668;Laerm;66534;52.370;4.832;2023-08-06T01:59:30;53.21;44.38;78.58;;
69668;Laerm;66534;52.370;4.832;2023-08-06T02:00:00;54.32;45.86;79.35;;
69668;Laerm;66534;52.370;4.832;2023-08-06T02:00:31;54.87;45.31;82.33;;
69668;Laerm;66534;52.370;4.832;2023-08-06T02:01:02;55.47;43.16;81.11;;
69668;Laerm;66534;52.370;4.832;2023-08-06T02:01:32;46.28;42.24;61.36;;
69668;Laerm;66534;52.370;4.832;2023-08-06T02:02:03;53.72;42.93;81.99;;
69668;Laerm;66534;52.370;4.832;2023-08-06T02:02:33;52.48;43.32;80.31;;
69668;Laerm;66534;52.370;4.832;2023-08-06T02:03:04;45.81;41.69;61.16;;
69668;Laerm;66534;52.370;4.832;2023-08-06T02:03:34;45.33;42.11;56.48;;
69668;Laerm;66534;52.370;4.832;2023-08-06T02:04:04;53.18;41.75;81.56;;
69668;Laerm;66534;52.370;4.832;2023-08-06T02:04:35;48.36;42.60;57.78;;
69668;Laerm;66534;52.370;4.832;2023-08-06T02:05:05;53.27;43.71;80.98;;
69668;Laerm;66534;52.370;4.832;2023-08-06T02:05:36;48.96;44.06;55.29;;
69668;Laerm;66534;52.370;4.832;2023-08-06T02:06:06;48.41;44.51;61.66;;
69668;Laerm;66534;52.370;4.832;2023-08-06T02:06:37;49.95;45.61;61.37;;
69668;Laerm;66534;52.370;4.832;2023-08-06T02:07:07;52.87;48.42;69.04;;
69668;Laerm;66534;52.370;4.832;2023-08-06T02:07:38;56.98;49.96;82.45;;
69668;Laerm;66534;52.370;4.832;2023-08-06T02:08:08;55.67;49.72;79.89;;
69668;Laerm;66534;52.370;4.832;2023-08-06T02:08:38;53.64;49.23;74.65;;
69668;Laerm;66534;52.370;4.832;2023-08-06T02:09:09;52.35;47.19;73.75;;
69668;Laerm;66534;52.370;4.832;2023-08-06T02:09:40;53.84;48.51;79.50;;
69668;Laerm;66534;52.370;4.832;2023-08-06T02:10:10;56.66;51.06;76.58;;
69668;Laerm;66534;52.370;4.832;2023-08-06T02:10:41;61.04;56.18;81.42;;
69668;Laerm;66534;52.370;4.832;2023-08-06T02:11:11;62.42;57.23;79.22;;
69668;Laerm;66534;52.370;4.832;2023-08-06T02:11:42;63.04;57.90;82.24;;
69668;Laerm;66534;52.370;4.832;2023-08-06T02:12:12;62.62;57.14;83.78;;
69668;Laerm;66534;52.370;4.832;2023-08-06T02:12:42;62.08;57.52;78.02;;
69668;Laerm;66534;52.370;4.832;2023-08-06T02:13:13;65.76;59.29;80.62;;
69668;Laerm;66534;52.370;4.832;2023-08-06T02:13:43;66.89;61.63;82.54;;
69668;Laerm;66534;52.370;4.832;2023-08-06T02:14:14;67.49;62.18;81.99;;
69668;Laerm;66534;52.370;4.832;2023-08-06T02:14:44;65.38;60.67;79.78;;
69668;Laerm;66534;52.370;4.832;2023-08-06T02:15:15;64.42;60.24;79.78;;
69668;Laerm;66534;52.370;4.832;2023-08-06T02:15:45;64.86;59.93;80.76;;
69668;Laerm;66534;52.370;4.832;2023-08-06T02:16:17;64.63;60.21;81.03;;
69668;Laerm;66534;52.370;4.832;2023-08-06T02:16:48;65.45;60.71;79.71;;
69668;Laerm;66534;52.370;4.832;2023-08-06T02:17:19;66.42;60.87;82.31;;
69668;Laerm;66534;52.370;4.832;2023-08-06T02:17:50;67.23;60.91;81.42;;
69668;Laerm;66534;52.370;4.832;2023-08-06T02:18:20;62.31;57.25;78.12;;
69668;Laerm;66534;52.370;4.832;2023-08-06T02:18:50;60.75;56.81;77.00;;
69668;Laerm;66534;52.370;4.832;2023-08-06T02:19:21;60.69;56.05;78.62;;
69668;Laerm;66534;52.370;4.832;2023-08-06T02:19:51;61.94;57.35;80.03;;
69668;Laerm;66534;52.370;4.832;2023-08-06T02:20:22;58.96;54.17;77.47;;
69668;Laerm;66534;52.370;4.832;2023-08-06T02:20:58;60.27;55.60;79.12;;
69668;Laerm;66534;52.370;4.832;2023-08-06T02:21:29;59.56;57.12;66.94;;
69668;Laerm;66534;52.370;4.832;2023-08-06T02:21:59;63.25;57.66;81.30;;
69668;Laerm;66534;52.370;4.832;2023-08-06T02:22:30;63.70;60.43;78.11;;
69668;Laerm;66534;52.370;4.832;2023-08-06T02:23:00;64.15;61.39;83.87;;
69668;Laerm;66534;52.370;4.832;2023-08-06T02:23:30;64.15;61.10;75.11;;
69668;Laerm;66534;52.370;4.832;2023-08-06T02:24:01;64.24;60.02;82.76;;
69668;Laerm;66534;52.370;4.832;2023-08-06T02:24:32;66.62;61.75;78.59;;
69668;Laerm;66534;52.370;4.832;2023-08-06T02:25:02;64.99;61.20;80.31;;
69668;Laerm;66534;52.370;4.832;2023-08-06T02:25:33;65.75;61.14;81.82;;
69668;Laerm;66534;52.370;4.832;2023-08-06T02:26:04;66.99;62.63;82.10;;
69668;Laerm;66534;52.370;4.832;2023-08-06T02:26:35;67.88;63.04;83.03;;
69668;Laerm;66534;52.370;4.832;2023-08-06T02:27:24;66.14;61.64;79.82;;
69668;Laerm;66534;52.370;4.832;2023-08-06T02:27:54;64.23;60.79;81.31;;
69668;Laerm;66534;52.370;4.832;2023-08-06T02:28:24;61.95;59.56;74.90;;
69668;Laerm;66534;52.370;4.832;2023-08-06T02:28:55;65.67;60.01;84.73;;
69668;Laerm;66534;52.370;4.832;2023-08-06T02:29:25;65.54;61.06;82.64;;
69668;Laerm;66534;52.370;4.832;2023-08-06T02:29:56;62.59;59.84;74.64;;
69668;Laerm;66534;52.370;4.832;2023-08-06T02:30:26;62.56;59.45;79.91;;
69668;Laerm;66534;52.370;4.832;2023-08-06T02:30:57;61.51;59.00;71.30;;
69668;Laerm;66534;52.370;4.832;2023-08-06T02:31:27;63.67;59.46;81.74;;
69668;Laerm;66534;52.370;4.832;2023-08-06T02:31:57;65.54;60.46;83.49;;
69668;Laerm;66534;52.370;4.832;2023-08-06T02:32:28;64.66;60.02;79.48;;
69668;Laerm;66534;52.370;4.832;2023-08-06T02:33:00;65.43;59.42;79.65;;
69668;Laerm;66534;52.370;4.832;2023-08-06T02:33:30;62.06;56.90;77.29;;
69668;Laerm;66534;52.370;4.832;2023-08-06T02:34:01;62.70;58.59;78.01;;
69668;Laerm;66534;52.370;4.832;2023-08-06T02:34:31;62.85;58.28;81.04;;
69668;Laerm;66534;52.370;4.832;2023-08-06T02:35:02;61.64;57.29;81.22;;
69668;Laerm;66534;52.370;4.832;2023-08-06T02:35:32;61.75;57.90;78.14;;
69668;Laerm;66534;52.370;4.832;2023-08-06T02:36:03;61.28;56.31;80.64;;
69668;Laerm;66534;52.370;4.832;2023-08-06T02:36:34;59.80;56.24;78.69;;
69668;Laerm;66534;52.370;4.832;2023-08-06T02:37:05;60.11;55.73;76.78;;
69668;Laerm;66534;52.370;4.832;2023-08-06T02:37:36;59.75;55.12;80.45;;
69668;Laerm;66534;52.370;4.832;2023-08-06T02:38:06;59.65;55.67;76.06;;
69668;Laerm;66534;52.370;4.832;2023-08-06T02:38:36;58.65;54.24;73.26;;
69668;Laerm;66534;52.370;4.832;2023-08-06T02:39:07;58.42;53.20;74.91;;
69668;Laerm;66534;52.370;4.832;2023-08-06T02:39:37;56.64;52.63;72.93;;
69668;Laerm;66534;52.370;4.832;2023-08-06T02:40:10;57.39;53.50;70.14;;
69668;Laerm;66534;52.370;4.832;2023-08-06T02:40:46;57.63;52.92;80.08;;
69668;Laerm;66534;52.370;4.832;2023-08-06T02:41:16;55.63;51.29;73.64;;
69668;Laerm;66534;52.370;4.832;2023-08-06T02:41:48;55.52;51.30;64.79;;
69668;Laerm;66534;52.370;4.832;2023-08-06T02:42:18;55.13;51.80;73.87;;
69668;Laerm;66534;52.370;4.832;2023-08-06T02:42:48;55.27;51.83;65.04;;
69668;Laerm;66534;52.370;4.832;2023-08-06T02:43:19;53.87;51.22;66.38;;
69668;Laerm;66534;52.370;4.832;2023-08-06T02:43:49;54.76;50.61;76.80;;
69668;Laerm;66534;52.370;4.832;2023-08-06T02:44:19;54.39;51.22;64.03;;
69668;Laerm;66534;52.370;4.832;2023-08-06T02:44:50;55.34;51.06;77.71;;
69668;Laerm;66534;52.370;4.832;2023-08-06T02:45:20;58.44;52.81;78.03;;
69668;Laerm;66534;52.370;4.832;2023-08-06T02:45:51;55.38;52.56;68.37;;
69668;Laerm;66534;52.370;4.832;2023-08-06T02:46:21;60.55;53.86;82.58;;
69668;Laerm;66534;52.370;4.832;2023-08-06T02:46:52;63.19;56.99;77.35;;
69668;Laerm;66534;52.370;4.832;2023-08-06T02:47:22;63.78;59.30;81.83;;
69668;Laerm;66534;52.370;4.832;2023-08-06T02:47:53;61.75;54.87;76.75;;
69668;Laerm;66534;52.370;4.832;2023-08-06T02:48:23;60.77;54.53;75.41;;
69668;Laerm;66534;52.370;4.832;2023-08-06T02:48:53;64.67;59.32;80.87;;
69668;Laerm;66534;52.370;4.832;2023-08-06T02:49:24;65.57;60.87;78.58;;
69668;Laerm;66534;52.370;4.832;2023-08-06T02:49:54;65.96;61.08;80.94;;
69668;Laerm;66534;52.370;4.832;2023-08-06T02:50:25;65.36;58.97;83.20;;
69668;Laerm;66534;52.370;4.832;2023-08-06T02:50:58;61.13;56.31;79.43;;
69668;Laerm;66534;52.370;4.832;2023-08-06T02:51:32;60.55;56.78;75.50;;
69668;Laerm;66534;52.370;4.832;2023-08-06T02:52:02;61.66;56.96;79.34;;
69668;Laerm;66534;52.370;4.832;2023-08-06T02:52:33;62.37;55.77;82.65;;
69668;Laerm;66534;52.370;4.832;2023-08-06T02:53:04;60.47;55.07;76.74;;
69668;Laerm;66534;52.370;4.832;2023-08-06T02:53:34;60.30;55.42;76.57;;
69668;Laerm;66534;52.370;4.832;2023-08-06T02:54:04;60.11;54.66;78.53;;
69668;Laerm;66534;52.370;4.832;2023-08-06T02:54:35;56.12;51.34;76.25;;
69668;Laerm;66534;52.370;4.832;2023-08-06T02:55:06;54.48;50.30;76.52;;
69668;Laerm;66534;52.370;4.832;2023-08-06T02:55:37;53.09;48.85;74.76;;
69668;Laerm;66534;52.370;4.832;2023-08-06T02:56:07;52.71;48.53;75.14;;
69668;Laerm;66534;52.370;4.832;2023-08-06T02:56:37;51.86;47.83;61.91;;
69668;Laerm;66534;52.370;4.832;2023-08-06T02:57:08;51.46;47.55;71.99;;
69668;Laerm;66534;52.370;4.832;2023-08-06T02:57:38;52.57;48.59;69.01;;
69668;Laerm;66534;52.370;4.832;2023-08-06T02:58:09;55.31;50.16;76.51;;
69668;Laerm;66534;52.370;4.832;2023-08-06T02:58:39;57.41;51.45;79.75;;
69668;Laerm;66534;52.370;4.832;2023-08-06T02:59:10;53.73;48.85;73.99;;
69668;Laerm;66534;52.370;4.832;2023-08-06T02:59:41;52.05;47.81;67.42;;
69668;Laerm;66534;52.370;4.832;2023-08-06T03:00:11;52.56;45.33;78.50;;